createdAt,value
2018-10-18T00:06:08.754Z,1001.10
2018-10-18T00:16:08.679Z,1001.02
2018-10-18T00:26:08.949Z,1000.99
2018-10-18T00:36:08.664Z,1001.19
2018-10-18T00:46:08.721Z,1001.20
2018-10-18T00:56:09.308Z,1001.20
2018-10-18T01:06:08.749Z,1001.29
2018-10-18T01:16:08.686Z,1001.29
2018-10-18T01:26:08.616Z,1001.13
2018-10-18T01:36:08.939Z,1001.22
2018-10-18T01:46:08.633Z,1001.34
2018-10-18T01:56:08.653Z,1001.38
2018-10-18T02:06:08.669Z,1001.45
2018-10-18T02:16:08.697Z,1001.42
2018-10-18T02:26:08.661Z,1001.43
2018-10-18T02:36:08.748Z,1001.55
2018-10-18T02:46:08.752Z,1001.50
2018-10-18T02:56:08.888Z,1001.48
2018-10-18T03:06:08.629Z,1001.53
2018-10-18T03:16:09.470Z,1001.53
2018-10-18T03:26:09.010Z,1001.52
2018-10-18T03:36:08.716Z,1001.58
2018-10-18T03:46:08.999Z,1001.61
2018-10-18T03:56:09.573Z,1001.65
2018-10-18T04:06:08.835Z,1001.78
2018-10-18T04:16:08.526Z,1001.80
2018-10-18T04:26:08.636Z,1001.85
2018-10-18T04:36:08.791Z,1001.91
2018-10-18T04:46:08.685Z,1001.91
2018-10-18T04:56:08.688Z,1002.03
2018-10-18T05:06:08.866Z,1002.03
2018-10-18T05:16:08.635Z,1002.02
2018-10-18T05:26:08.642Z,1002.07
2018-10-18T05:36:08.711Z,1002.22
2018-10-18T05:46:08.703Z,1002.19
2018-10-18T05:56:08.676Z,1002.34
2018-10-18T06:06:08.717Z,1002.40
2018-10-18T06:16:09.554Z,1002.48
2018-10-18T06:26:08.642Z,1002.47
2018-10-18T06:36:08.646Z,1002.55
2018-10-18T06:46:08.707Z,1002.56
2018-10-18T06:56:08.909Z,1002.55
2018-10-18T07:06:08.854Z,1002.57
2018-10-18T07:16:08.781Z,1002.55
2018-10-18T07:26:08.844Z,1002.69
2018-10-18T07:36:09.416Z,1002.69
2018-10-18T07:46:08.784Z,1002.82
2018-10-18T07:56:08.634Z,1002.83
2018-10-18T08:06:09.419Z,1002.80
2018-10-18T08:16:09.716Z,1002.79
2018-10-18T08:26:08.695Z,1002.87
2018-10-18T08:36:08.708Z,1002.91
2018-10-18T08:46:08.706Z,1003.00
2018-10-18T08:56:08.702Z,1003.04
2018-10-18T09:06:08.694Z,1003.12
2018-10-18T09:16:09.171Z,1003.22
2018-10-18T09:26:08.709Z,1003.41
2018-10-18T09:36:08.875Z,1003.49
2018-10-18T09:46:08.657Z,1003.49
2018-10-18T09:56:08.769Z,1003.49
2018-10-18T10:06:08.656Z,1003.57
2018-10-18T10:16:09.256Z,1003.59
2018-10-18T10:26:09.154Z,1003.63
2018-10-18T10:36:08.906Z,1003.65
2018-10-18T10:46:08.791Z,1003.67
2018-10-18T10:56:08.814Z,1003.54
2018-10-18T11:06:08.792Z,1003.51
2018-10-18T11:16:08.810Z,1003.38
2018-10-18T11:26:08.829Z,1003.40
2018-10-18T11:36:08.667Z,1003.30
2018-10-18T11:46:09.533Z,1003.46
2018-10-18T11:56:08.771Z,1003.36
2018-10-18T12:06:09.405Z,1003.50
2018-10-18T12:16:08.775Z,1003.31
2018-10-18T12:26:08.891Z,1003.16
2018-10-18T12:36:08.700Z,1003.12
2018-10-18T12:46:08.823Z,1003.18
2018-10-18T12:56:08.736Z,1003.03
2018-10-18T13:06:08.911Z,1003.00
2018-10-18T13:16:09.812Z,1003.03
2018-10-18T13:26:08.864Z,1003.02
2018-10-18T13:36:08.856Z,1002.89
2018-10-18T13:46:09.055Z,1002.88
2018-10-18T13:56:08.923Z,1002.88
2018-10-18T14:06:09.703Z,1002.91
2018-10-18T14:16:08.720Z,1002.82
2018-10-18T14:26:08.894Z,1002.80
2018-10-18T14:36:08.649Z,1002.76
2018-10-18T14:46:08.894Z,1002.74
2018-10-18T14:56:09.770Z,1002.77
2018-10-18T15:06:09.344Z,1002.82
2018-10-18T15:16:08.735Z,1002.71
2018-10-18T15:26:09.010Z,1002.73
2018-10-18T15:36:08.743Z,1002.65
2018-10-18T15:46:08.975Z,1002.71
2018-10-18T15:56:08.768Z,1002.77
2018-10-18T16:06:08.823Z,1002.88
2018-10-18T16:16:10.487Z,1002.98
2018-10-18T16:26:08.870Z,1002.94
2018-10-18T16:36:08.715Z,1003.15
2018-10-18T16:46:08.784Z,1003.05
2018-10-18T16:56:08.736Z,1003.09
2018-10-18T17:06:09.002Z,1003.11
2018-10-18T17:16:08.817Z,1003.11
2018-10-18T17:26:08.844Z,1003.17
2018-10-18T17:36:08.806Z,1003.14
2018-10-18T17:46:08.787Z,1003.36
2018-10-18T17:56:08.779Z,1003.28
2018-10-18T18:06:08.987Z,1003.31
2018-10-18T18:16:08.792Z,1003.24
2018-10-18T18:26:08.765Z,1003.32
2018-10-18T18:36:09.337Z,1003.51
2018-10-18T18:46:08.733Z,1003.59
2018-10-18T18:56:12.484Z,1003.58
2018-10-18T19:06:08.850Z,1003.68
2018-10-18T19:16:08.966Z,1003.79
2018-10-18T19:26:08.873Z,1003.75
2018-10-18T19:36:08.744Z,1003.80
2018-10-18T19:46:08.826Z,1003.89
2018-10-18T19:56:08.807Z,1003.88
2018-10-18T20:06:08.759Z,1003.98
2018-10-18T20:16:08.747Z,1003.95
2018-10-18T20:26:09.098Z,1003.99
2018-10-18T20:36:08.903Z,1004.05
2018-10-18T20:46:08.879Z,1003.99
2018-10-18T20:56:08.878Z,1003.92
2018-10-18T21:06:09.935Z,1003.91
2018-10-18T21:16:08.786Z,1003.96
2018-10-18T21:26:08.778Z,1003.87
2018-10-18T21:36:09.231Z,1003.85
2018-10-18T21:46:08.763Z,1003.88
2018-10-18T21:56:08.767Z,1003.98
2018-10-18T22:06:08.787Z,1003.96
2018-10-18T22:16:08.795Z,1003.93
2018-10-18T22:26:10.300Z,1003.86
2018-10-18T22:36:08.786Z,1003.77
2018-10-18T22:46:08.810Z,1003.73
2018-10-18T22:56:08.795Z,1003.66
2018-10-18T23:06:08.926Z,1003.73
2018-10-18T23:16:10.235Z,1003.75
2018-10-18T23:26:08.844Z,1003.77
2018-10-18T23:36:08.844Z,1003.67
2018-10-18T23:46:09.811Z,1003.65
2018-10-18T23:56:08.770Z,1003.48
